createdAt,value
2019-05-26T00:00:31.325Z,43.84
2019-05-26T00:01:35.793Z,44.19
2019-05-26T00:02:40.597Z,44.16
2019-05-26T00:03:45.009Z,44.17
2019-05-26T00:04:50.034Z,44.25
2019-05-26T00:05:54.506Z,44.20
2019-05-26T00:06:59.073Z,44.01
2019-05-26T00:08:04.445Z,43.87
2019-05-26T00:09:09.001Z,44.19
2019-05-26T00:10:13.762Z,44.16
2019-05-26T00:11:18.382Z,44.52
2019-05-26T00:12:22.754Z,44.44
2019-05-26T00:13:27.407Z,44.61
2019-05-26T00:14:31.939Z,44.52
2019-05-26T00:15:37.911Z,44.63
2019-05-26T00:16:42.341Z,44.58
2019-05-26T00:17:48.093Z,44.70
2019-05-26T00:18:52.582Z,44.49
2019-05-26T00:19:57.192Z,44.80
2019-05-26T00:21:01.610Z,44.88
2019-05-26T00:22:06.242Z,45.14
2019-05-26T00:23:10.618Z,45.29
2019-05-26T00:24:15.237Z,45.37
2019-05-26T00:25:19.733Z,45.23
2019-05-26T00:26:24.465Z,45.42
2019-05-26T00:27:28.910Z,45.35
2019-05-26T00:28:33.473Z,45.43
2019-05-26T00:29:37.940Z,45.39
2019-05-26T00:30:42.661Z,45.45
2019-05-26T00:31:47.309Z,45.40
2019-05-26T00:32:52.009Z,45.23
2019-05-26T00:33:56.523Z,45.33
2019-05-26T00:35:01.207Z,45.33
2019-05-26T00:36:05.779Z,45.40
2019-05-26T00:37:10.325Z,45.43
2019-05-26T00:38:14.845Z,45.43
2019-05-26T00:39:19.502Z,45.47
2019-05-26T00:40:23.950Z,45.68
2019-05-26T00:41:28.566Z,45.59
2019-05-26T00:42:33.100Z,45.71
2019-05-26T00:43:38.714Z,45.87
2019-05-26T00:44:43.117Z,45.81
2019-05-26T00:45:48.053Z,45.71
2019-05-26T00:46:52.454Z,45.75
2019-05-26T00:47:57.010Z,45.85
2019-05-26T00:49:01.585Z,45.70
2019-05-26T00:50:07.784Z,45.76
2019-05-26T00:51:12.297Z,45.99
2019-05-26T00:52:16.891Z,45.97
2019-05-26T00:53:21.423Z,45.95
2019-05-26T00:54:26.072Z,45.88
2019-05-26T00:55:30.448Z,46.02
2019-05-26T00:56:35.024Z,46.05
2019-05-26T00:57:39.513Z,45.91
2019-05-26T00:58:44.069Z,45.94
2019-05-26T00:59:48.454Z,46.28
2019-05-26T01:00:53.013Z,46.28
2019-05-26T01:01:57.481Z,46.29
2019-05-26T01:03:02.117Z,46.27
2019-05-26T01:04:06.490Z,46.40
2019-05-26T01:05:11.187Z,46.29
2019-05-26T01:06:15.590Z,46.29
2019-05-26T01:07:20.259Z,46.30
2019-05-26T01:08:24.893Z,46.30
2019-05-26T01:09:29.484Z,46.21
2019-05-26T01:10:33.972Z,46.51
2019-05-26T01:11:38.875Z,46.61
2019-05-26T01:12:43.490Z,46.54
2019-05-26T01:13:48.201Z,46.56
2019-05-26T01:14:52.569Z,46.60
2019-05-26T01:15:57.137Z,46.60
2019-05-26T01:17:01.607Z,46.67
2019-05-26T01:18:06.603Z,46.55
2019-05-26T01:19:11.156Z,46.63
2019-05-26T01:20:15.795Z,46.76
2019-05-26T01:21:20.376Z,46.74
2019-05-26T01:22:25.003Z,46.92
2019-05-26T01:23:29.409Z,47.16
2019-05-26T01:24:34.175Z,47.27
2019-05-26T01:25:38.562Z,47.42
2019-05-26T01:26:43.125Z,47.35
2019-05-26T01:27:47.637Z,47.31
2019-05-26T01:28:52.205Z,47.24
2019-05-26T01:29:56.682Z,47.25
2019-05-26T01:31:01.311Z,47.28
2019-05-26T01:32:05.836Z,47.19
2019-05-26T01:33:10.394Z,47.22
2019-05-26T01:34:14.812Z,47.20
2019-05-26T01:35:19.340Z,47.17
2019-05-26T01:36:23.884Z,47.20
2019-05-26T01:37:28.609Z,47.25
2019-05-26T01:38:33.244Z,47.21
2019-05-26T01:39:37.806Z,47.34
2019-05-26T01:40:45.095Z,47.38
2019-05-26T01:41:49.866Z,47.53
2019-05-26T01:42:54.394Z,47.54
2019-05-26T01:43:58.957Z,47.53
2019-05-26T01:45:04.001Z,47.45
2019-05-26T01:46:08.557Z,47.47
2019-05-26T01:47:12.932Z,47.62
2019-05-26T01:48:17.634Z,47.65
2019-05-26T01:49:22.012Z,47.53
2019-05-26T01:50:26.569Z,47.61
2019-05-26T01:51:31.162Z,47.70
2019-05-26T01:52:35.723Z,47.69
2019-05-26T01:53:40.213Z,47.86
2019-05-26T01:54:44.810Z,48.00
2019-05-26T01:55:49.194Z,48.05
2019-05-26T01:56:53.822Z,47.95
2019-05-26T01:57:58.202Z,48.11
2019-05-26T01:59:03.166Z,48.07
2019-05-26T02:00:07.610Z,48.12
2019-05-26T02:01:12.537Z,47.94
2019-05-26T02:02:16.986Z,47.91
2019-05-26T02:03:21.544Z,47.88
2019-05-26T02:04:26.042Z,47.90
2019-05-26T02:05:30.602Z,48.16
2019-05-26T02:06:34.978Z,47.98
2019-05-26T02:07:39.681Z,48.05
2019-05-26T02:08:44.058Z,47.96
2019-05-26T02:09:48.795Z,48.25
2019-05-26T02:10:53.389Z,48.28
2019-05-26T02:11:58.267Z,48.04
2019-05-26T02:13:02.634Z,48.05
2019-05-26T02:14:07.194Z,48.41
2019-05-26T02:15:11.572Z,48.40
2019-05-26T02:16:16.102Z,48.50
2019-05-26T02:17:20.525Z,48.46
2019-05-26T02:18:25.101Z,48.53
2019-05-26T02:19:29.478Z,48.70
2019-05-26T02:20:34.216Z,48.59
2019-05-26T02:21:38.606Z,48.56
2019-05-26T02:22:43.275Z,48.74
2019-05-26T02:23:47.658Z,48.84
2019-05-26T02:24:52.227Z,48.81
2019-05-26T02:25:56.666Z,48.72
2019-05-26T02:27:01.298Z,48.71
2019-05-26T02:28:05.875Z,48.79
2019-05-26T02:29:11.545Z,48.72
2019-05-26T02:30:15.939Z,48.87
2019-05-26T02:31:20.849Z,48.96
2019-05-26T02:32:25.223Z,48.92
2019-05-26T02:33:29.810Z,48.84
2019-05-26T02:34:34.331Z,48.84
2019-05-26T02:35:38.958Z,48.86
2019-05-26T02:36:43.359Z,49.01
2019-05-26T02:37:48.040Z,49.07
2019-05-26T02:39:02.145Z,48.98
2019-05-26T02:39:58.836Z,48.88
2019-05-26T02:41:03.477Z,48.92
2019-05-26T02:42:08.026Z,49.06
2019-05-26T02:43:13.625Z,49.13
2019-05-26T02:44:18.211Z,49.13
2019-05-26T02:45:22.689Z,49.02
2019-05-26T02:46:27.253Z,49.25
2019-05-26T02:47:31.673Z,49.36
2019-05-26T02:48:36.294Z,49.39
2019-05-26T02:49:40.690Z,49.29
2019-05-26T02:50:46.443Z,49.10
2019-05-26T02:51:50.817Z,49.21
2019-05-26T02:52:55.541Z,49.25
2019-05-26T02:53:59.918Z,49.15
2019-05-26T02:55:06.117Z,49.14
2019-05-26T02:56:10.591Z,49.02
2019-05-26T02:57:15.360Z,49.05
2019-05-26T02:58:20.870Z,49.08
2019-05-26T02:59:25.545Z,49.07
2019-05-26T03:00:42.811Z,49.01
2019-05-26T03:02:02.577Z,49.11
2019-05-26T03:02:53.569Z,49.14
2019-05-26T03:03:58.169Z,49.15
2019-05-26T03:05:02.697Z,49.20
2019-05-26T03:06:08.357Z,49.15
2019-05-26T03:07:12.708Z,49.16
2019-05-26T03:08:17.431Z,49.17
2019-05-26T03:09:23.778Z,49.27
2019-05-26T03:10:28.632Z,49.29
2019-05-26T03:11:33.053Z,49.30
2019-05-26T03:12:39.815Z,49.48
2019-05-26T03:13:44.314Z,49.54
2019-05-26T03:14:49.000Z,49.67
2019-05-26T03:15:53.357Z,49.89
2019-05-26T03:16:58.572Z,49.86
2019-05-26T03:18:06.493Z,49.85
2019-05-26T03:19:11.044Z,50.26
2019-05-26T03:20:15.614Z,50.19
2019-05-26T03:21:20.849Z,50.12
2019-05-26T03:22:25.324Z,50.10
2019-05-26T03:23:31.698Z,50.06
2019-05-26T03:24:36.168Z,49.97
2019-05-26T03:25:40.821Z,49.98
2019-05-26T03:26:45.220Z,50.02
2019-05-26T03:27:49.847Z,50.01
2019-05-26T03:28:54.286Z,49.94
2019-05-26T03:29:58.865Z,49.89
2019-05-26T03:31:03.369Z,49.86
2019-05-26T03:32:08.036Z,49.88
2019-05-26T03:33:12.562Z,49.76
2019-05-26T03:34:17.425Z,49.68
2019-05-26T03:35:21.793Z,49.68
2019-05-26T03:36:26.422Z,49.77
2019-05-26T03:37:30.871Z,49.80
2019-05-26T03:38:35.612Z,49.78
2019-05-26T03:39:45.159Z,49.84
2019-05-26T03:40:46.458Z,49.89
2019-05-26T03:41:50.889Z,49.80
2019-05-26T03:42:56.524Z,49.98
2019-05-26T03:44:00.990Z,49.89
2019-05-26T03:45:07.092Z,49.89
2019-05-26T03:46:14.768Z,49.89
2019-05-26T03:47:20.115Z,50.00
2019-05-26T03:48:24.541Z,50.09
2019-05-26T03:49:29.139Z,50.10
2019-05-26T03:50:33.701Z,50.18
2019-05-26T03:51:38.585Z,50.31
2019-05-26T03:52:42.962Z,50.21
2019-05-26T03:53:47.639Z,50.19
2019-05-26T03:54:51.973Z,50.13
2019-05-26T03:55:56.562Z,50.35
2019-05-26T03:57:01.025Z,50.44
2019-05-26T03:58:05.658Z,50.43
2019-05-26T03:59:10.025Z,50.50
2019-05-26T04:00:14.870Z,50.51
2019-05-26T04:01:19.253Z,50.51
2019-05-26T04:02:23.885Z,50.60
2019-05-26T04:03:28.263Z,50.71
2019-05-26T04:04:32.813Z,50.72
2019-05-26T04:05:37.200Z,50.74
2019-05-26T04:06:41.991Z,50.68
2019-05-26T04:07:46.448Z,50.62
2019-05-26T04:08:51.097Z,50.64
2019-05-26T04:10:04.910Z,50.64
2019-05-26T04:11:01.921Z,50.65
2019-05-26T04:12:06.324Z,50.78
2019-05-26T04:13:10.889Z,50.74
2019-05-26T04:14:15.272Z,50.70
2019-05-26T04:15:19.838Z,50.86
2019-05-26T04:16:24.210Z,50.86
2019-05-26T04:17:30.258Z,50.87
2019-05-26T04:18:34.645Z,50.77
2019-05-26T04:19:39.196Z,50.81
2019-05-26T04:20:46.004Z,50.77
2019-05-26T04:21:49.841Z,50.84
2019-05-26T04:22:54.261Z,51.07
2019-05-26T04:23:58.809Z,50.91
2019-05-26T04:25:04.662Z,50.98
2019-05-26T04:26:09.223Z,50.92
2019-05-26T04:27:13.610Z,51.04
2019-05-26T04:28:18.365Z,50.98
2019-05-26T04:29:22.790Z,51.11
2019-05-26T04:30:28.421Z,50.93
2019-05-26T04:31:32.798Z,50.83
2019-05-26T04:32:37.367Z,51.04
2019-05-26T04:33:41.733Z,51.06
2019-05-26T04:34:46.356Z,51.00
2019-05-26T04:35:50.725Z,51.07
2019-05-26T04:36:55.308Z,50.93
2019-05-26T04:37:59.682Z,51.13
2019-05-26T04:39:06.981Z,51.07
2019-05-26T04:40:25.555Z,51.19
2019-05-26T04:41:17.802Z,51.33
2019-05-26T04:42:22.180Z,51.66
2019-05-26T04:43:26.753Z,51.62
2019-05-26T04:44:31.114Z,51.77
2019-05-26T04:45:35.839Z,51.72
2019-05-26T04:46:40.236Z,51.72
2019-05-26T04:47:45.876Z,51.87
2019-05-26T04:48:51.226Z,51.94
2019-05-26T04:49:55.791Z,52.00
2019-05-26T04:51:00.250Z,52.08
2019-05-26T04:52:05.533Z,51.87
2019-05-26T04:53:10.878Z,51.84
2019-05-26T04:54:15.439Z,51.97
2019-05-26T04:55:19.821Z,51.91
2019-05-26T04:56:25.418Z,51.94
2019-05-26T04:57:30.296Z,51.99
2019-05-26T04:58:34.864Z,51.92
2019-05-26T04:59:40.215Z,52.08
2019-05-26T05:00:44.858Z,52.11
2019-05-26T05:01:49.238Z,52.24
2019-05-26T05:02:53.874Z,52.08
2019-05-26T05:03:58.251Z,52.27
2019-05-26T05:05:03.033Z,52.36
2019-05-26T05:06:07.421Z,52.51
2019-05-26T05:07:11.987Z,52.48
2019-05-26T05:08:16.446Z,52.58
2019-05-26T05:09:21.006Z,52.78
2019-05-26T05:10:39.434Z,52.82
2019-05-26T05:11:31.760Z,52.88
2019-05-26T05:12:36.138Z,52.93
2019-05-26T05:13:40.707Z,53.33
2019-05-26T05:14:45.181Z,53.48
2019-05-26T05:15:49.755Z,53.30
2019-05-26T05:16:54.261Z,53.29
2019-05-26T05:17:58.900Z,53.15
2019-05-26T05:19:03.424Z,53.01
2019-05-26T05:20:08.044Z,52.79
2019-05-26T05:21:12.462Z,52.94
2019-05-26T05:22:17.058Z,52.83
2019-05-26T05:23:21.521Z,53.01
2019-05-26T05:24:26.159Z,52.91
2019-05-26T05:25:30.575Z,52.98
2019-05-26T05:26:35.174Z,53.22
2019-05-26T05:27:39.650Z,52.92
2019-05-26T05:28:44.222Z,52.92
2019-05-26T05:29:48.674Z,52.83
2019-05-26T05:30:53.364Z,52.84
2019-05-26T05:31:57.773Z,52.80
2019-05-26T05:33:02.561Z,52.41
2019-05-26T05:34:07.025Z,52.37
2019-05-26T05:35:11.774Z,52.37
2019-05-26T05:36:16.158Z,52.43
2019-05-26T05:37:20.760Z,52.56
2019-05-26T05:38:25.187Z,52.73
2019-05-26T05:39:29.928Z,52.69
2019-05-26T05:40:34.311Z,52.67
2019-05-26T05:41:38.918Z,52.41
2019-05-26T05:42:43.326Z,52.53
2019-05-26T05:43:48.083Z,52.33
2019-05-26T05:44:52.468Z,52.30
2019-05-26T05:45:57.047Z,52.64
2019-05-26T05:47:02.468Z,52.58
2019-05-26T05:48:07.163Z,52.56
2019-05-26T05:49:12.691Z,52.49
2019-05-26T05:50:17.614Z,52.48
2019-05-26T05:51:23.138Z,52.43
2019-05-26T05:52:27.826Z,52.36
2019-05-26T05:53:32.420Z,52.42
2019-05-26T05:54:37.163Z,52.41
2019-05-26T05:55:41.588Z,52.30
2019-05-26T05:56:46.381Z,52.20
2019-05-26T05:57:51.242Z,52.12
2019-05-26T05:58:55.867Z,52.15
2019-05-26T06:00:00.638Z,52.13
2019-05-26T06:01:05.223Z,52.20
2019-05-26T06:02:09.710Z,52.15
2019-05-26T06:03:14.418Z,52.49
2019-05-26T06:04:18.817Z,52.37
2019-05-26T06:05:23.481Z,52.15
2019-05-26T06:06:27.895Z,51.94
2019-05-26T06:07:32.522Z,51.79
2019-05-26T06:08:36.992Z,51.87
2019-05-26T06:09:41.631Z,51.49
2019-05-26T06:10:46.166Z,51.67
2019-05-26T06:11:54.430Z,52.07
2019-05-26T06:13:04.700Z,52.01
2019-05-26T06:14:09.263Z,51.31
2019-05-26T06:15:15.607Z,51.99
2019-05-26T06:16:20.057Z,51.64
2019-05-26T06:17:24.570Z,51.27
2019-05-26T06:18:29.275Z,51.27
2019-05-26T06:19:33.672Z,51.58
2019-05-26T06:20:38.340Z,50.99
2019-05-26T06:21:42.826Z,50.92
2019-05-26T06:22:47.472Z,50.93
2019-05-26T06:23:51.991Z,50.81
2019-05-26T06:24:56.559Z,50.90
2019-05-26T06:26:01.399Z,51.03
2019-05-26T06:27:06.062Z,50.93
2019-05-26T06:28:10.720Z,51.23
2019-05-26T06:29:15.407Z,50.87
2019-05-26T06:30:19.936Z,50.74
2019-05-26T06:31:24.786Z,50.66
2019-05-26T06:32:30.061Z,50.53
2019-05-26T06:33:34.722Z,50.25
2019-05-26T06:34:39.146Z,50.38
2019-05-26T06:35:43.741Z,50.03
2019-05-26T06:36:48.623Z,50.51
2019-05-26T06:37:53.367Z,50.16
2019-05-26T06:38:57.692Z,49.55
2019-05-26T06:40:02.472Z,49.74
2019-05-26T06:41:06.851Z,50.12
2019-05-26T06:42:13.075Z,49.91
2019-05-26T06:43:17.896Z,50.20
2019-05-26T06:44:22.481Z,49.85
2019-05-26T06:45:26.999Z,50.03
2019-05-26T06:46:31.757Z,50.00
2019-05-26T06:47:36.217Z,49.61
2019-05-26T06:48:40.790Z,49.90
2019-05-26T06:49:45.433Z,49.61
2019-05-26T06:50:50.070Z,49.61
2019-05-26T06:51:54.445Z,49.69
2019-05-26T06:52:59.005Z,49.77
2019-05-26T06:54:03.434Z,49.27
2019-05-26T06:55:08.023Z,48.88
2019-05-26T06:56:12.400Z,49.05
2019-05-26T06:57:17.181Z,48.96
2019-05-26T06:58:21.533Z,48.97
2019-05-26T06:59:26.097Z,49.17
2019-05-26T07:00:30.770Z,48.88
2019-05-26T07:01:35.330Z,48.40
2019-05-26T07:02:39.901Z,48.54
2019-05-26T07:03:44.463Z,48.74
2019-05-26T07:04:48.840Z,49.34
2019-05-26T07:05:53.589Z,48.37
2019-05-26T07:06:57.969Z,47.62
2019-05-26T07:08:02.614Z,47.60
2019-05-26T07:09:07.413Z,47.85
2019-05-26T07:10:11.925Z,47.26
2019-05-26T07:11:16.434Z,46.95
2019-05-26T07:12:20.961Z,46.44
2019-05-26T07:13:25.482Z,47.28
2019-05-26T07:14:30.174Z,47.37
2019-05-26T07:15:34.584Z,47.13
2019-05-26T07:16:40.276Z,47.13
2019-05-26T07:17:44.726Z,46.24
2019-05-26T07:18:49.439Z,46.04
2019-05-26T07:19:53.868Z,45.94
2019-05-26T07:20:58.433Z,45.30
2019-05-26T07:22:04.433Z,44.33
2019-05-26T07:23:09.571Z,44.44
2019-05-26T07:24:14.655Z,45.37
2019-05-26T07:25:19.214Z,44.48
2019-05-26T07:26:23.735Z,45.40
2019-05-26T07:27:28.346Z,45.46
2019-05-26T07:28:33.058Z,43.84
2019-05-26T07:29:37.711Z,44.03
2019-05-26T07:30:42.171Z,43.26
2019-05-26T07:31:46.808Z,44.05
2019-05-26T07:32:51.182Z,43.58
2019-05-26T07:33:55.748Z,43.51
2019-05-26T07:35:00.373Z,42.65
2019-05-26T07:36:05.098Z,43.43
2019-05-26T07:37:09.470Z,44.77
2019-05-26T07:38:14.096Z,45.23
2019-05-26T07:39:18.532Z,43.99
2019-05-26T07:40:23.138Z,43.56
2019-05-26T07:41:27.514Z,41.80
2019-05-26T07:42:32.102Z,42.20
2019-05-26T07:43:36.526Z,41.45
2019-05-26T07:44:41.374Z,42.28
2019-05-26T07:45:45.823Z,42.64
2019-05-26T07:46:50.864Z,42.26
2019-05-26T07:47:55.751Z,42.78
2019-05-26T07:49:00.413Z,41.46
2019-05-26T07:50:08.833Z,42.98
2019-05-26T07:51:13.466Z,43.01
2019-05-26T07:52:17.993Z,42.52
2019-05-26T07:53:22.685Z,42.85
2019-05-26T07:54:27.039Z,42.49
2019-05-26T07:55:31.782Z,42.42
2019-05-26T07:56:36.220Z,42.71
2019-05-26T07:57:40.790Z,42.46
2019-05-26T07:58:45.328Z,42.09
2019-05-26T07:59:49.977Z,41.36
2019-05-26T08:00:54.703Z,41.81
2019-05-26T08:01:59.339Z,40.48
2019-05-26T08:03:04.257Z,40.85
2019-05-26T08:04:08.887Z,41.02
2019-05-26T08:05:13.260Z,41.39
2019-05-26T08:06:17.879Z,41.41
2019-05-26T08:07:23.220Z,41.74
2019-05-26T08:08:27.953Z,42.10
2019-05-26T08:09:32.351Z,42.10
2019-05-26T08:10:37.023Z,41.81
2019-05-26T08:11:41.653Z,41.46
2019-05-26T08:12:46.234Z,40.88
2019-05-26T08:13:50.615Z,41.17
2019-05-26T08:14:55.251Z,40.50
2019-05-26T08:15:59.620Z,40.50
2019-05-26T08:17:05.939Z,41.48
2019-05-26T08:18:10.335Z,40.98
2019-05-26T08:19:15.006Z,40.12
2019-05-26T08:20:19.407Z,40.45
2019-05-26T08:21:24.057Z,40.29
2019-05-26T08:22:28.700Z,40.13
2019-05-26T08:23:33.332Z,40.11
2019-05-26T08:24:37.906Z,39.39
2019-05-26T08:25:42.842Z,39.96
2019-05-26T08:26:47.408Z,40.22
2019-05-26T08:27:52.389Z,40.42
2019-05-26T08:28:56.777Z,40.55
2019-05-26T08:30:01.485Z,40.32
2019-05-26T08:31:05.901Z,40.18
2019-05-26T08:32:10.444Z,39.21
2019-05-26T08:33:14.905Z,39.59
2019-05-26T08:34:19.550Z,39.78
2019-05-26T08:35:23.963Z,40.04
2019-05-26T08:36:28.615Z,40.14
2019-05-26T08:37:32.962Z,40.01
2019-05-26T08:38:38.915Z,40.31
2019-05-26T08:39:43.346Z,40.12
2019-05-26T08:40:49.161Z,39.98
2019-05-26T08:41:53.590Z,40.34
2019-05-26T08:42:58.360Z,40.31
2019-05-26T08:44:02.813Z,40.06
2019-05-26T08:45:07.441Z,40.03
2019-05-26T08:46:11.819Z,39.72
2019-05-26T08:47:16.528Z,39.29
2019-05-26T08:48:20.941Z,38.88
2019-05-26T08:49:26.577Z,39.10
2019-05-26T08:50:34.162Z,39.45
2019-05-26T08:51:37.318Z,39.42
2019-05-26T08:52:41.856Z,39.52
2019-05-26T08:53:46.444Z,40.07
2019-05-26T08:54:50.823Z,39.61
2019-05-26T08:55:55.379Z,39.94
2019-05-26T08:57:00.009Z,40.50
2019-05-26T08:58:06.116Z,40.47
2019-05-26T08:59:10.573Z,40.70
2019-05-26T09:00:16.761Z,40.90
2019-05-26T09:01:21.137Z,40.70
2019-05-26T09:02:25.790Z,40.86
2019-05-26T09:03:31.273Z,40.69
2019-05-26T09:04:35.848Z,39.74
2019-05-26T09:05:40.222Z,39.80
2019-05-26T09:06:44.777Z,39.60
2019-05-26T09:07:49.242Z,38.38
2019-05-26T09:08:53.879Z,38.31
2019-05-26T09:09:58.366Z,37.69
2019-05-26T09:11:02.942Z,38.05
2019-05-26T09:12:07.398Z,38.04
2019-05-26T09:13:11.958Z,38.11
2019-05-26T09:14:16.497Z,38.47
2019-05-26T09:15:21.132Z,38.65
2019-05-26T09:16:25.646Z,38.54
2019-05-26T09:17:30.389Z,38.41
2019-05-26T09:18:34.955Z,37.71
2019-05-26T09:19:39.705Z,37.95
2019-05-26T09:20:44.089Z,38.81
2019-05-26T09:21:48.713Z,38.76
2019-05-26T09:22:53.081Z,38.39
2019-05-26T09:23:57.640Z,37.69
2019-05-26T09:25:02.167Z,38.18
2019-05-26T09:26:06.869Z,37.64
2019-05-26T09:27:11.238Z,38.05
2019-05-26T09:28:16.758Z,37.80
2019-05-26T09:29:21.132Z,38.12
2019-05-26T09:30:25.809Z,37.34
2019-05-26T09:31:30.317Z,38.11
2019-05-26T09:32:34.942Z,38.04
2019-05-26T09:33:39.334Z,38.21
2019-05-26T09:34:43.894Z,37.93
2019-05-26T09:35:48.352Z,38.18
2019-05-26T09:36:52.937Z,37.46
2019-05-26T09:37:57.329Z,36.55
2019-05-26T09:39:01.884Z,35.66
2019-05-26T09:40:08.553Z,36.36
2019-05-26T09:41:13.365Z,36.20
2019-05-26T09:42:17.768Z,37.05
2019-05-26T09:43:22.336Z,37.85
2019-05-26T09:44:26.776Z,37.96
2019-05-26T09:45:31.385Z,37.60
2019-05-26T09:46:35.755Z,37.30
2019-05-26T09:47:40.409Z,37.79
2019-05-26T09:48:44.920Z,37.97
2019-05-26T09:49:49.614Z,37.01
2019-05-26T09:50:53.992Z,36.05
2019-05-26T09:51:58.612Z,36.09
2019-05-26T09:53:03.010Z,35.90
2019-05-26T09:54:07.589Z,36.66
2019-05-26T09:55:12.004Z,36.55
2019-05-26T09:56:16.633Z,37.00
2019-05-26T09:57:21.006Z,36.85
2019-05-26T09:58:25.564Z,36.42
2019-05-26T09:59:30.007Z,36.87
2019-05-26T10:00:34.600Z,36.77
2019-05-26T10:01:39.210Z,36.67
2019-05-26T10:02:43.830Z,35.96
2019-05-26T10:03:48.181Z,36.39
2019-05-26T10:04:52.825Z,35.98
2019-05-26T10:05:57.229Z,35.26
2019-05-26T10:07:01.884Z,35.68
2019-05-26T10:08:06.324Z,35.42
2019-05-26T10:09:10.948Z,34.44
2019-05-26T10:10:15.328Z,35.34
2019-05-26T10:11:19.880Z,35.34
2019-05-26T10:12:24.277Z,34.75
2019-05-26T10:13:31.875Z,35.23
2019-05-26T10:14:34.935Z,34.85
2019-05-26T10:15:39.488Z,34.84
2019-05-26T10:16:43.931Z,35.03
2019-05-26T10:17:48.512Z,35.45
2019-05-26T10:18:52.969Z,35.21
2019-05-26T10:19:57.521Z,35.77
2019-05-26T10:21:02.724Z,34.97
2019-05-26T10:22:07.316Z,34.64
2019-05-26T10:23:12.049Z,35.42
2019-05-26T10:24:16.612Z,35.23
2019-05-26T10:25:20.977Z,34.97
2019-05-26T10:26:25.530Z,34.92
2019-05-26T10:27:30.278Z,35.22
2019-05-26T10:28:34.842Z,34.85
2019-05-26T10:29:39.249Z,34.72
2019-05-26T10:30:43.881Z,34.39
2019-05-26T10:31:48.386Z,34.64
2019-05-26T10:32:53.693Z,34.20
2019-05-26T10:33:58.145Z,34.43
2019-05-26T10:35:02.748Z,35.14
2019-05-26T10:36:08.318Z,34.10
2019-05-26T10:37:12.865Z,34.69
2019-05-26T10:38:17.340Z,34.52
2019-05-26T10:39:21.889Z,34.57
2019-05-26T10:40:26.280Z,34.62
2019-05-26T10:41:30.985Z,34.01
2019-05-26T10:42:35.377Z,34.39
2019-05-26T10:43:47.239Z,34.76
2019-05-26T10:44:46.141Z,34.12
2019-05-26T10:45:50.773Z,34.62
2019-05-26T10:46:55.209Z,34.16
2019-05-26T10:47:59.785Z,34.10
2019-05-26T10:49:04.374Z,33.85
2019-05-26T10:50:09.437Z,33.25
2019-05-26T10:51:13.927Z,32.18
2019-05-26T10:52:18.466Z,32.18
2019-05-26T10:53:23.056Z,32.62
2019-05-26T10:54:27.682Z,33.62
2019-05-26T10:55:32.096Z,32.82
2019-05-26T10:56:36.653Z,33.38
2019-05-26T10:57:41.121Z,33.94
2019-05-26T10:58:45.747Z,34.26
2019-05-26T10:59:50.121Z,34.13
2019-05-26T11:00:54.700Z,33.70
2019-05-26T11:01:59.140Z,34.23
2019-05-26T11:03:03.705Z,33.67
2019-05-26T11:04:08.142Z,32.92
2019-05-26T11:05:12.782Z,32.18
2019-05-26T11:06:18.632Z,32.61
2019-05-26T11:07:26.651Z,31.55
2019-05-26T11:08:29.434Z,32.00
2019-05-26T11:09:34.040Z,31.12
2019-05-26T11:10:38.426Z,31.56
2019-05-26T11:11:43.092Z,31.76
2019-05-26T11:12:47.508Z,31.78
2019-05-26T11:14:02.590Z,31.69
2019-05-26T11:14:58.230Z,31.33
2019-05-26T11:16:02.782Z,31.52
2019-05-26T11:17:07.197Z,31.74
2019-05-26T11:18:12.237Z,31.07
2019-05-26T11:19:16.680Z,31.07
2019-05-26T11:20:21.376Z,30.61
2019-05-26T11:21:25.807Z,31.61
2019-05-26T11:22:30.365Z,31.23
2019-05-26T11:23:34.956Z,31.51
2019-05-26T11:24:39.652Z,30.65
2019-05-26T11:25:44.314Z,30.52
2019-05-26T11:26:49.269Z,30.58
2019-05-26T11:27:53.801Z,30.56
2019-05-26T11:28:58.440Z,31.25
2019-05-26T11:30:02.832Z,31.81
2019-05-26T11:31:07.461Z,31.41
2019-05-26T11:32:11.829Z,31.41
2019-05-26T11:33:16.454Z,29.93
2019-05-26T11:34:20.849Z,29.45
2019-05-26T11:35:25.400Z,30.28
2019-05-26T11:36:29.776Z,29.82
2019-05-26T11:37:34.334Z,29.94
2019-05-26T11:38:38.709Z,29.43
2019-05-26T11:39:43.409Z,30.12
2019-05-26T11:40:48.063Z,29.77
2019-05-26T11:41:54.810Z,29.69
2019-05-26T11:42:58.707Z,29.80
2019-05-26T11:44:17.025Z,29.79
2019-05-26T11:45:09.417Z,30.25
2019-05-26T11:46:16.596Z,30.42
2019-05-26T11:47:20.160Z,30.32
2019-05-26T11:48:24.716Z,30.85
2019-05-26T11:49:29.080Z,30.83
2019-05-26T11:50:33.706Z,30.87
2019-05-26T11:51:38.103Z,30.23
2019-05-26T11:52:42.728Z,29.85
2019-05-26T11:53:47.101Z,30.37
2019-05-26T11:54:51.742Z,30.17
2019-05-26T11:55:56.375Z,30.22
2019-05-26T11:57:01.017Z,30.45
2019-05-26T11:58:05.516Z,30.28
2019-05-26T11:59:10.101Z,29.90
2019-05-26T12:00:16.007Z,30.46
2019-05-26T12:01:23.123Z,31.11
2019-05-26T12:02:26.812Z,30.78
2019-05-26T12:03:31.373Z,30.54
2019-05-26T12:04:35.745Z,30.40
2019-05-26T12:05:40.300Z,31.05
2019-05-26T12:06:44.798Z,31.39
2019-05-26T12:07:49.374Z,30.34
2019-05-26T12:08:53.749Z,29.97
2019-05-26T12:09:59.505Z,30.04
2019-05-26T12:11:03.830Z,30.62
2019-05-26T12:12:08.384Z,31.22
2019-05-26T12:13:12.950Z,31.54
2019-05-26T12:14:33.031Z,31.74
2019-05-26T12:15:23.849Z,31.66
2019-05-26T12:16:29.027Z,31.85
2019-05-26T12:17:33.568Z,31.53
2019-05-26T12:18:38.121Z,31.41
2019-05-26T12:19:42.503Z,31.55
2019-05-26T12:20:47.396Z,29.93
2019-05-26T12:21:51.791Z,30.87
2019-05-26T12:22:56.630Z,30.93
2019-05-26T12:24:01.003Z,30.90
2019-05-26T12:25:08.373Z,29.97
2019-05-26T12:26:12.913Z,30.56
2019-05-26T12:27:17.577Z,29.64
2019-05-26T12:28:22.008Z,29.78
2019-05-26T12:29:26.566Z,30.21
2019-05-26T12:30:32.010Z,30.57
2019-05-26T12:31:36.665Z,30.90
2019-05-26T12:32:41.044Z,30.99
2019-05-26T12:33:45.825Z,31.28
2019-05-26T12:34:50.321Z,31.41
2019-05-26T12:35:54.965Z,31.29
2019-05-26T12:36:59.438Z,31.17
2019-05-26T12:38:04.872Z,30.78
2019-05-26T12:39:09.795Z,30.47
2019-05-26T12:40:14.408Z,29.90
2019-05-26T12:41:19.926Z,28.88
2019-05-26T12:42:24.556Z,28.64
2019-05-26T12:43:28.920Z,28.45
2019-05-26T12:44:48.250Z,28.07
2019-05-26T12:45:39.632Z,28.74
2019-05-26T12:46:44.264Z,28.38
2019-05-26T12:47:48.739Z,28.21
2019-05-26T12:48:53.280Z,29.22
2019-05-26T12:49:57.651Z,29.87
2019-05-26T12:51:02.276Z,29.97
2019-05-26T12:52:06.716Z,29.72
2019-05-26T12:53:11.349Z,29.12
2019-05-26T12:54:15.890Z,29.43
2019-05-26T12:55:20.405Z,29.55
2019-05-26T12:56:24.796Z,29.34
2019-05-26T12:57:29.353Z,29.45
2019-05-26T12:58:33.724Z,29.83
2019-05-26T12:59:38.312Z,30.05
2019-05-26T13:00:48.963Z,30.70
2019-05-26T13:01:48.923Z,30.76
2019-05-26T13:02:53.349Z,30.02
2019-05-26T13:03:57.884Z,30.23
2019-05-26T13:05:02.295Z,30.24
2019-05-26T13:06:07.827Z,30.13
2019-05-26T13:07:13.197Z,30.18
2019-05-26T13:08:17.885Z,28.41
2019-05-26T13:09:22.359Z,29.25
2019-05-26T13:10:27.040Z,29.20
2019-05-26T13:11:31.584Z,29.11
2019-05-26T13:12:36.140Z,29.56
2019-05-26T13:13:40.514Z,29.38
2019-05-26T13:14:45.103Z,29.53
2019-05-26T13:15:49.536Z,28.75
2019-05-26T13:16:54.116Z,28.46
2019-05-26T13:17:58.512Z,29.45
2019-05-26T13:19:03.147Z,29.03
2019-05-26T13:20:07.941Z,28.28
2019-05-26T13:21:12.520Z,28.88
2019-05-26T13:22:16.915Z,29.21
2019-05-26T13:23:21.520Z,29.23
2019-05-26T13:24:25.911Z,29.66
2019-05-26T13:25:30.602Z,29.63
2019-05-26T13:26:34.967Z,29.99
2019-05-26T13:27:39.612Z,29.64
2019-05-26T13:28:43.985Z,29.38
2019-05-26T13:29:48.592Z,29.37
2019-05-26T13:30:52.952Z,29.76
2019-05-26T13:31:57.577Z,30.09
2019-05-26T13:33:01.963Z,29.80
2019-05-26T13:34:06.610Z,30.32
2019-05-26T13:35:10.994Z,29.77
2019-05-26T13:36:15.654Z,29.93
2019-05-26T13:37:20.137Z,29.47
2019-05-26T13:38:24.795Z,29.80
2019-05-26T13:39:29.473Z,29.66
2019-05-26T13:40:34.029Z,29.37
2019-05-26T13:41:38.415Z,29.65
2019-05-26T13:42:43.089Z,29.79
2019-05-26T13:43:47.461Z,30.32
2019-05-26T13:44:52.108Z,29.97
2019-05-26T13:45:56.482Z,30.19
2019-05-26T13:47:01.035Z,29.47
2019-05-26T13:48:05.401Z,29.46
2019-05-26T13:49:09.955Z,29.56
2019-05-26T13:50:14.450Z,29.01
2019-05-26T13:51:19.014Z,28.50
2019-05-26T13:52:23.449Z,28.58
2019-05-26T13:53:28.025Z,28.46